Pagrindinis puslapis
METAR-TAF:

METAR-TAF

Oro uostai :

Ndžamena, Čadas

platuma: 12-08N, ilguma: 015-02E, Aukštis: 295 m

Dabartinis oras

Ataskaita buvo paskelbta 1 valandą ir 9 minutes, ne 10:00 UTC
Vėjas 11 kt iš Rytų/Pietryčių, svyruoja nuo Rytų/Pietryčių ir Pietų
Temperatūra 41°C
Drėgmė 23%
Slėgis 1007 hPa
Matomumas: 7000 m

METAR: FTTJ 311000Z 12011KT 120V190 7000 NSC 41/16 Q1007 NOSIG

Laikas: 12:09 (11:09 UTC)

Prognozė

Ataskaita buvo paskelbta 5 valandos ir 39 minutes, ne 05:30 UTC
Prognozė galioja nuo 31 metu 06 UTC su 01 metu 12 UTC
Vėjas 10 kt iš Šiaurės
Matomumas: 4000 m
migla
Tapsmas
nuo 31 metu 10 UTC su 31 metu 12 UTC
Matomumas: 7000 m
Laikinai
nuo 31 metu 17 UTC su 31 metu 20 UTC
Matomumas: 3000 m

TAF: FTTJ 310530Z 3106/0112 01010KT 4000 HZ NSC BECMG 3110/3112 7000 NSW TEMPO 3117/3120 3000

Orai ataskaitas ir orų prognozės (METAR, TAF).

turimą stotys yra geltonos ir raudonos taškus žemėlapyje.

Perkelti pele per norėdami pamatyti stoties vardą.

Tada spustelėkite, norėdami matyti oro stebėjimo ir prognozės.

Norėdami pakeisti žemėlapį: spustelėkite ant žalios mygtukų su juodo kryžiaus žemyn,; žalią mygtuką su brūkšneliu, jei norite nutolinti; arba žalių rodyklių gretimoms žemėlapius.


METAR-TAF: